sensor_id;sensor_type;location;lat;lon;timestamp;pressure;altitude;pressure_sealevel;temperature;humidity
13765;BME280;6953;48.810;9.204;2023-07-13T00:00:11;98653.19;;;22.21;63.37
13765;BME280;6953;48.810;9.204;2023-07-13T00:02:37;98657.84;;;22.19;63.46
13765;BME280;6953;48.810;9.204;2023-07-13T00:05:02;98655.47;;;22.16;63.34
13765;BME280;6953;48.810;9.204;2023-07-13T00:07:28;98381.09;;;20.52;63.37
13765;BME280;6953;48.810;9.204;2023-07-13T00:09:53;98653.19;;;22.04;64.04
13765;BME280;6953;48.810;9.204;2023-07-13T00:12:27;98659.66;;;22.02;64.29
13765;BME280;6953;48.810;9.204;2023-07-13T00:14:59;98653.09;;;21.96;64.44
13765;BME280;6953;48.810;9.204;2023-07-13T00:17:25;98656.38;;;21.90;64.50
13765;BME280;6953;48.810;9.204;2023-07-13T00:19:51;98560.88;;;21.30;64.77
13765;BME280;6953;48.810;9.204;2023-07-13T00:22:17;98648.75;;;21.78;65.20
13765;BME280;6953;48.810;9.204;2023-07-13T00:28:39;98645.44;;;21.66;65.02
13765;BME280;6953;48.810;9.204;2023-07-13T00:31:04;98568.97;;;20.94;65.32
13765;BME280;6953;48.810;9.204;2023-07-13T00:33:30;98421.44;;;20.03;65.43
13765;BME280;6953;48.810;9.204;2023-07-13T00:35:55;98616.16;;;21.20;65.38
13765;BME280;6953;48.810;9.204;2023-07-13T00:38:22;98653.44;;;21.39;65.41
13765;BME280;6953;48.810;9.204;2023-07-13T00:40:47;98656.69;;;21.33;65.24
13765;BME280;6953;48.810;9.204;2023-07-13T00:43:15;98461.66;;;20.10;65.58
13765;BME280;6953;48.810;9.204;2023-07-13T00:48:43;98479.31;;;20.11;65.86
13765;BME280;6953;48.810;9.204;2023-07-13T00:51:02;98677.91;;;20.98;66.18
13765;BME280;6953;48.810;9.204;2023-07-13T00:53:28;98673.41;;;21.08;66.33
13765;BME280;6953;48.810;9.204;2023-07-13T00:55:55;98474.44;;;19.88;65.93
13765;BME280;6953;48.810;9.204;2023-07-13T00:58:22;98669.19;;;21.06;65.97
13765;BME280;6953;48.810;9.204;2023-07-13T01:00:48;98673.53;;;21.07;65.70
13765;BME280;6953;48.810;9.204;2023-07-13T01:03:15;98680.09;;;21.12;65.74
13765;BME280;6953;48.810;9.204;2023-07-13T01:05:41;98434.84;;;19.66;65.53
13765;BME280;6953;48.810;9.204;2023-07-13T01:08:06;98675.66;;;21.03;65.53
13765;BME280;6953;48.810;9.204;2023-07-13T01:10:32;98669.09;;;20.98;65.08
13765;BME280;6953;48.810;9.204;2023-07-13T01:13:08;98664.06;;;20.76;65.00
13765;BME280;6953;48.810;9.204;2023-07-13T01:15:43;98475.03;;;19.72;65.31
13765;BME280;6953;48.810;9.204;2023-07-13T01:18:12;98633.38;;;20.53;65.22
13765;BME280;6953;48.810;9.204;2023-07-13T01:20:39;98450.00;;;19.46;66.44
13765;BME280;6953;48.810;9.204;2023-07-13T01:23:10;98458.00;;;19.46;66.37
13765;BME280;6953;48.810;9.204;2023-07-13T01:25:36;98671.94;;;20.68;66.26
13765;BME280;6953;48.810;9.204;2023-07-13T01:28:03;98441.88;;;19.29;66.38
13765;BME280;6953;48.810;9.204;2023-07-13T01:30:29;98691.31;;;20.70;67.07
13765;BME280;6953;48.810;9.204;2023-07-13T01:32:54;98489.34;;;19.43;67.24
13765;BME280;6953;48.810;9.204;2023-07-13T01:35:19;98717.00;;;20.62;67.65
13765;BME280;6953;48.810;9.204;2023-07-13T01:37:45;98702.41;;;20.56;67.84
13765;BME280;6953;48.810;9.204;2023-07-13T01:40:11;98687.13;;;20.39;68.25
13765;BME280;6953;48.810;9.204;2023-07-13T01:42:37;98697.50;;;20.42;67.38
13765;BME280;6953;48.810;9.204;2023-07-13T01:45:03;98686.72;;;20.34;66.89
13765;BME280;6953;48.810;9.204;2023-07-13T01:47:29;98664.97;;;20.20;66.67
13765;BME280;6953;48.810;9.204;2023-07-13T01:49:56;98644.78;;;19.98;67.48
13765;BME280;6953;48.810;9.204;2023-07-13T01:52:21;98734.25;;;20.10;68.53
13765;BME280;6953;48.810;9.204;2023-07-13T01:54:47;98699.06;;;20.07;69.71
13765;BME280;6953;48.810;9.204;2023-07-13T01:57:12;98701.16;;;20.03;69.47
13765;BME280;6953;48.810;9.204;2023-07-13T01:59:37;98693.28;;;19.92;70.05
13765;BME280;6953;48.810;9.204;2023-07-13T02:02:03;98462.44;;;18.50;70.60
13765;BME280;6953;48.810;9.204;2023-07-13T02:04:28;98709.34;;;19.82;72.42
13765;BME280;6953;48.810;9.204;2023-07-13T02:06:53;98478.06;;;18.34;73.33
13765;BME280;6953;48.810;9.204;2023-07-13T02:09:20;98418.53;;;17.86;73.62
13765;BME280;6953;48.810;9.204;2023-07-13T02:11:46;98738.84;;;19.50;74.98
13765;BME280;6953;48.810;9.204;2023-07-13T02:14:11;98703.34;;;19.31;75.64
13765;BME280;6953;48.810;9.204;2023-07-13T02:16:36;98711.19;;;19.32;75.81
13765;BME280;6953;48.810;9.204;2023-07-13T02:19:01;98710.88;;;19.26;77.07
13765;BME280;6953;48.810;9.204;2023-07-13T02:21:27;98694.75;;;18.97;76.84
13765;BME280;6953;48.810;9.204;2023-07-13T02:23:54;98707.13;;;19.08;76.41
13765;BME280;6953;48.810;9.204;2023-07-13T02:26:20;98481.16;;;17.68;77.37
13765;BME280;6953;48.810;9.204;2023-07-13T02:28:45;98714.53;;;19.04;78.24
13765;BME280;6953;48.810;9.204;2023-07-13T02:31:13;98652.47;;;18.65;78.10
13765;BME280;6953;48.810;9.204;2023-07-13T02:33:38;98446.00;;;17.35;77.56
13765;BME280;6953;48.810;9.204;2023-07-13T02:36:04;98697.44;;;18.77;77.27
13765;BME280;6953;48.810;9.204;2023-07-13T02:38:34;98655.50;;;18.60;77.32
13765;BME280;6953;48.810;9.204;2023-07-13T02:41:00;98717.47;;;18.81;78.31
13765;BME280;6953;48.810;9.204;2023-07-13T02:43:26;98710.03;;;18.75;79.14
13765;BME280;6953;48.810;9.204;2023-07-13T02:45:52;98688.78;;;18.55;79.73
13765;BME280;6953;48.810;9.204;2023-07-13T02:48:17;98704.91;;;18.63;80.09
13765;BME280;6953;48.810;9.204;2023-07-13T02:50:44;98716.84;;;18.68;79.50
13765;BME280;6953;48.810;9.204;2023-07-13T02:53:09;98522.25;;;17.53;79.94
13765;BME280;6953;48.810;9.204;2023-07-13T02:55:35;98663.88;;;18.35;80.85
13765;BME280;6953;48.810;9.204;2023-07-13T02:58:00;98726.91;;;18.65;81.81
13765;BME280;6953;48.810;9.204;2023-07-13T03:00:26;98646.28;;;18.03;82.68
13765;BME280;6953;48.810;9.204;2023-07-13T03:02:52;98666.34;;;18.16;83.66
13765;BME280;6953;48.810;9.204;2023-07-13T03:05:18;98736.28;;;18.48;84.28
13765;BME280;6953;48.810;9.204;2023-07-13T03:07:43;98690.41;;;18.15;84.47
13765;BME280;6953;48.810;9.204;2023-07-13T03:10:09;98510.09;;;17.08;84.72
13765;BME280;6953;48.810;9.204;2023-07-13T03:12:34;98721.88;;;18.30;84.85
13765;BME280;6953;48.810;9.204;2023-07-13T03:14:59;98714.88;;;18.29;84.35
13765;BME280;6953;48.810;9.204;2023-07-13T03:17:25;98744.06;;;18.61;83.83
13765;BME280;6953;48.810;9.204;2023-07-13T03:19:50;98745.03;;;18.80;82.90
13765;BME280;6953;48.810;9.204;2023-07-13T03:22:17;98751.78;;;19.04;82.48
13765;BME280;6953;48.810;9.204;2023-07-13T03:24:43;98782.00;;;19.24;81.58
13765;BME280;6953;48.810;9.204;2023-07-13T03:27:08;98750.88;;;19.45;81.95
13765;BME280;6953;48.810;9.204;2023-07-13T03:29:34;98760.06;;;19.61;81.64
13765;BME280;6953;48.810;9.204;2023-07-13T03:31:59;98744.22;;;19.69;80.90
13765;BME280;6953;48.810;9.204;2023-07-13T03:34:24;98706.50;;;19.55;80.70
13765;BME280;6953;48.810;9.204;2023-07-13T03:36:50;98776.72;;;20.02;80.49
13765;BME280;6953;48.810;9.204;2023-07-13T03:39:15;98699.66;;;19.71;79.55
13765;BME280;6953;48.810;9.204;2023-07-13T03:41:41;98749.69;;;20.07;79.19
13765;BME280;6953;48.810;9.204;2023-07-13T03:44:06;98521.59;;;18.82;77.92
13765;BME280;6953;48.810;9.204;2023-07-13T03:46:32;98554.88;;;18.85;76.18
13765;BME280;6953;48.810;9.204;2023-07-13T03:48:58;98767.09;;;20.39;75.58
13765;BME280;6953;48.810;9.204;2023-07-13T03:51:24;98760.38;;;20.45;75.45
13765;BME280;6953;48.810;9.204;2023-07-13T03:53:49;98776.91;;;20.39;72.53
13765;BME280;6953;48.810;9.204;2023-07-13T03:56:16;98760.09;;;20.57;72.13
13765;BME280;6953;48.810;9.204;2023-07-13T03:58:43;98552.13;;;19.36;70.25
13765;BME280;6953;48.810;9.204;2023-07-13T04:01:10;98787.59;;;20.86;68.87
13765;BME280;6953;48.810;9.204;2023-07-13T04:03:36;98687.56;;;20.35;68.15
13765;BME280;6953;48.810;9.204;2023-07-13T04:06:03;98766.53;;;20.93;67.21
13765;BME280;6953;48.810;9.204;2023-07-13T04:08:31;98789.53;;;21.03;66.14
13765;BME280;6953;48.810;9.204;2023-07-13T04:10:58;98620.41;;;20.03;65.66
13765;BME280;6953;48.810;9.204;2023-07-13T04:13:24;98787.84;;;21.02;66.24
13765;BME280;6953;48.810;9.204;2023-07-13T04:15:50;98550.28;;;19.65;66.42
13765;BME280;6953;48.810;9.204;2023-07-13T04:18:16;98543.00;;;19.57;65.42
13765;BME280;6953;48.810;9.204;2023-07-13T04:20:41;98766.69;;;20.91;64.94
13765;BME280;6953;48.810;9.204;2023-07-13T04:23:07;98738.03;;;20.74;65.09
13765;BME280;6953;48.810;9.204;2023-07-13T04:25:32;98588.13;;;19.96;65.16
13765;BME280;6953;48.810;9.204;2023-07-13T04:27:58;98622.91;;;20.23;65.11
13765;BME280;6953;48.810;9.204;2023-07-13T04:30:23;98564.56;;;19.92;64.60
13765;BME280;6953;48.810;9.204;2023-07-13T04:32:51;98800.44;;;21.38;63.95
13765;BME280;6953;48.810;9.204;2023-07-13T04:35:17;98799.44;;;21.39;63.65
13765;BME280;6953;48.810;9.204;2023-07-13T04:37:43;98791.03;;;21.34;64.28
13765;BME280;6953;48.810;9.204;2023-07-13T04:40:08;98790.78;;;21.27;63.64
13765;BME280;6953;48.810;9.204;2023-07-13T04:42:37;98730.59;;;20.78;63.60
13765;BME280;6953;48.810;9.204;2023-07-13T04:45:03;98731.75;;;20.66;63.71
13765;BME280;6953;48.810;9.204;2023-07-13T04:47:30;98769.06;;;20.75;63.96
13765;BME280;6953;48.810;9.204;2023-07-13T04:49:55;98572.13;;;19.49;64.83
13765;BME280;6953;48.810;9.204;2023-07-13T04:52:22;98572.69;;;19.34;65.49
13765;BME280;6953;48.810;9.204;2023-07-13T04:54:47;98801.78;;;20.68;65.64
13765;BME280;6953;48.810;9.204;2023-07-13T04:57:13;98792.50;;;20.62;65.34
13765;BME280;6953;48.810;9.204;2023-07-13T04:59:38;98822.13;;;20.69;65.17
13765;BME280;6953;48.810;9.204;2023-07-13T05:02:03;98809.50;;;20.80;65.72
13765;BME280;6953;48.810;9.204;2023-07-13T05:04:29;98767.94;;;20.59;65.62
13765;BME280;6953;48.810;9.204;2023-07-13T05:06:55;98799.66;;;20.71;65.33
13765;BME280;6953;48.810;9.204;2023-07-13T05:09:20;98784.63;;;20.70;66.30
13765;BME280;6953;48.810;9.204;2023-07-13T05:11:45;98737.47;;;20.61;66.34
13765;BME280;6953;48.810;9.204;2023-07-13T05:14:10;98653.75;;;20.45;66.23
13765;BME280;6953;48.810;9.204;2023-07-13T05:16:36;98839.38;;;21.86;64.00
13765;BME280;6953;48.810;9.204;2023-07-13T05:19:02;98536.47;;;20.72;60.69
13765;BME280;6953;48.810;9.204;2023-07-13T05:21:28;98661.81;;;21.81;59.47
13765;BME280;6953;48.810;9.204;2023-07-13T05:23:53;98820.03;;;23.15;57.65
13765;BME280;6953;48.810;9.204;2023-07-13T05:26:18;98799.38;;;23.25;55.91
13765;BME280;6953;48.810;9.204;2023-07-13T05:28:45;98835.19;;;23.50;55.14
13765;BME280;6953;48.810;9.204;2023-07-13T05:31:11;98807.91;;;23.54;54.31
13765;BME280;6953;48.810;9.204;2023-07-13T05:33:36;98626.78;;;22.61;53.42
13765;BME280;6953;48.810;9.204;2023-07-13T05:36:02;98812.44;;;23.79;53.10
13765;BME280;6953;48.810;9.204;2023-07-13T05:38:28;98813.81;;;23.83;52.44
13765;BME280;6953;48.810;9.204;2023-07-13T05:40:54;98831.66;;;23.75;52.91
13765;BME280;6953;48.810;9.204;2023-07-13T05:43:21;98834.56;;;23.81;52.37
13765;BME280;6953;48.810;9.204;2023-07-13T05:45:46;98815.69;;;23.65;52.97
13765;BME280;6953;48.810;9.204;2023-07-13T05:48:11;98826.53;;;23.56;52.89
13765;BME280;6953;48.810;9.204;2023-07-13T05:50:38;98824.09;;;23.45;53.08
13765;BME280;6953;48.810;9.204;2023-07-13T05:53:04;98826.38;;;23.32;52.76
13765;BME280;6953;48.810;9.204;2023-07-13T05:55:29;98832.50;;;23.24;53.49
13765;BME280;6953;48.810;9.204;2023-07-13T05:57:54;98835.50;;;23.21;53.66
13765;BME280;6953;48.810;9.204;2023-07-13T06:00:20;98617.13;;;21.91;54.00
13765;BME280;6953;48.810;9.204;2023-07-13T06:02:45;98847.88;;;23.05;53.68
13765;BME280;6953;48.810;9.204;2023-07-13T06:05:11;98837.56;;;23.27;53.72
13765;BME280;6953;48.810;9.204;2023-07-13T06:07:37;98640.88;;;22.46;52.90
13765;BME280;6953;48.810;9.204;2023-07-13T06:10:03;98837.63;;;24.27;50.59
13765;BME280;6953;48.810;9.204;2023-07-13T06:12:28;98869.53;;;25.04;47.72
13765;BME280;6953;48.810;9.204;2023-07-13T06:14:53;98647.69;;;24.95;44.11
13765;BME280;6953;48.810;9.204;2023-07-13T06:17:19;98864.41;;;27.11;41.16
13765;BME280;6953;48.810;9.204;2023-07-13T06:19:44;98858.47;;;27.89;38.23
13765;BME280;6953;48.810;9.204;2023-07-13T06:22:09;98862.41;;;28.94;35.02
13765;BME280;6953;48.810;9.204;2023-07-13T06:24:35;98871.97;;;29.80;32.80
13765;BME280;6953;48.810;9.204;2023-07-13T06:27:00;98728.28;;;29.14;31.51
13765;BME280;6953;48.810;9.204;2023-07-13T06:29:25;98876.13;;;30.44;30.64
13765;BME280;6953;48.810;9.204;2023-07-13T06:31:50;98743.09;;;28.97;31.80
13765;BME280;6953;48.810;9.204;2023-07-13T06:34:16;98679.06;;;27.50;33.97
13765;BME280;6953;48.810;9.204;2023-07-13T06:36:41;98875.25;;;27.85;36.56
13765;BME280;6953;48.810;9.204;2023-07-13T06:39:07;98803.13;;;27.28;36.92
13765;BME280;6953;48.810;9.204;2023-07-13T06:41:32;98892.69;;;28.75;34.53
13765;BME280;6953;48.810;9.204;2023-07-13T06:43:58;98846.03;;;29.65;32.19
13765;BME280;6953;48.810;9.204;2023-07-13T06:46:23;98891.22;;;30.60;30.10
13765;BME280;6953;48.810;9.204;2023-07-13T06:48:49;98915.13;;;31.82;28.75
13765;BME280;6953;48.810;9.204;2023-07-13T06:51:14;98876.78;;;32.55;26.40
13765;BME280;6953;48.810;9.204;2023-07-13T06:53:40;98930.22;;;33.30;26.11
13765;BME280;6953;48.810;9.204;2023-07-13T06:56:05;98755.97;;;32.88;25.61
13765;BME280;6953;48.810;9.204;2023-07-13T06:58:31;98939.66;;;34.63;24.34
13765;BME280;6953;48.810;9.204;2023-07-13T07:00:56;98942.19;;;34.40;24.23
13765;BME280;6953;48.810;9.204;2023-07-13T07:03:22;98916.88;;;34.09;24.18
13765;BME280;6953;48.810;9.204;2023-07-13T07:05:47;98904.09;;;33.54;24.39
13765;BME280;6953;48.810;9.204;2023-07-13T07:08:12;98927.63;;;33.04;25.63
13765;BME280;6953;48.810;9.204;2023-07-13T07:10:38;98912.81;;;32.94;25.92
13765;BME280;6953;48.810;9.204;2023-07-13T07:13:04;98938.91;;;33.14;26.17
13765;BME280;6953;48.810;9.204;2023-07-13T07:15:29;98947.06;;;34.14;25.29
13765;BME280;6953;48.810;9.204;2023-07-13T07:17:55;98873.22;;;34.87;22.87
13765;BME280;6953;48.810;9.204;2023-07-13T07:20:20;98948.03;;;36.03;21.33
13765;BME280;6953;48.810;9.204;2023-07-13T07:22:46;98947.44;;;36.36;21.52
13765;BME280;6953;48.810;9.204;2023-07-13T07:25:12;98947.53;;;36.29;20.49
13765;BME280;6953;48.810;9.204;2023-07-13T07:27:37;98897.50;;;36.40;19.84
13765;BME280;6953;48.810;9.204;2023-07-13T07:30:03;98850.66;;;36.48;20.64
13765;BME280;6953;48.810;9.204;2023-07-13T07:32:30;98958.88;;;37.18;18.83
13765;BME280;6953;48.810;9.204;2023-07-13T07:34:57;98951.44;;;37.41;18.80
13765;BME280;6953;48.810;9.204;2023-07-13T07:37:22;98967.66;;;37.31;18.11
13765;BME280;6953;48.810;9.204;2023-07-13T07:39:47;98968.13;;;37.28;18.08
13765;BME280;6953;48.810;9.204;2023-07-13T07:42:13;98952.63;;;37.06;18.23
13765;BME280;6953;48.810;9.204;2023-07-13T07:44:39;98792.38;;;36.47;18.41
13765;BME280;6953;48.810;9.204;2023-07-13T07:47:05;98948.31;;;37.93;18.99
13765;BME280;6953;48.810;9.204;2023-07-13T07:49:31;98960.72;;;38.29;18.10
13765;BME280;6953;48.810;9.204;2023-07-13T07:51:56;98808.84;;;37.48;17.60
13765;BME280;6953;48.810;9.204;2023-07-13T07:54:21;98975.59;;;38.49;16.98
13765;BME280;6953;48.810;9.204;2023-07-13T07:56:47;98972.88;;;38.87;16.89
13765;BME280;6953;48.810;9.204;2023-07-13T07:59:12;98972.75;;;38.61;16.73
13765;BME280;6953;48.810;9.204;2023-07-13T08:01:37;98971.59;;;38.73;17.35
13765;BME280;6953;48.810;9.204;2023-07-13T08:04:03;98968.31;;;38.76;16.82
13765;BME280;6953;48.810;9.204;2023-07-13T08:06:28;98810.69;;;38.13;17.06
13765;BME280;6953;48.810;9.204;2023-07-13T08:08:54;98900.31;;;39.04;16.56
13765;BME280;6953;48.810;9.204;2023-07-13T08:11:20;98858.81;;;39.01;15.88
13765;BME280;6953;48.810;9.204;2023-07-13T08:13:45;98977.78;;;39.49;15.55
13765;BME280;6953;48.810;9.204;2023-07-13T08:16:11;98822.91;;;38.22;16.21
13765;BME280;6953;48.810;9.204;2023-07-13T08:18:37;98991.63;;;39.54;15.85
13765;BME280;6953;48.810;9.204;2023-07-13T08:21:06;98991.41;;;39.61;16.01
13765;BME280;6953;48.810;9.204;2023-07-13T08:23:32;98961.06;;;40.03;15.75
13765;BME280;6953;48.810;9.204;2023-07-13T08:25:57;98902.00;;;39.84;15.21
13765;BME280;6953;48.810;9.204;2023-07-13T08:28:24;98986.88;;;40.65;14.82
13765;BME280;6953;48.810;9.204;2023-07-13T08:30:49;98966.22;;;41.09;15.20
13765;BME280;6953;48.810;9.204;2023-07-13T08:33:19;98993.59;;;41.25;13.70
13765;BME280;6953;48.810;9.204;2023-07-13T08:35:48;99001.63;;;40.90;14.42
13765;BME280;6953;48.810;9.204;2023-07-13T08:38:15;98942.47;;;41.03;14.97
13765;BME280;6953;48.810;9.204;2023-07-13T08:40:41;98989.75;;;41.36;13.95
13765;BME280;6953;48.810;9.204;2023-07-13T08:43:16;99007.53;;;41.60;14.62
13765;BME280;6953;48.810;9.204;2023-07-13T08:45:46;98920.03;;;41.31;13.88
13765;BME280;6953;48.810;9.204;2023-07-13T08:48:21;98995.97;;;41.12;15.13
13765;BME280;6953;48.810;9.204;2023-07-13T08:51:00;98962.06;;;41.06;14.01
13765;BME280;6953;48.810;9.204;2023-07-13T08:53:34;98947.97;;;41.79;13.78
13765;BME280;6953;48.810;9.204;2023-07-13T08:56:04;98953.66;;;41.33;14.71
13765;BME280;6953;48.810;9.204;2023-07-13T08:58:30;98857.16;;;41.28;14.13
13765;BME280;6953;48.810;9.204;2023-07-13T09:04:06;98995.59;;;43.39;13.30
13765;BME280;6953;48.810;9.204;2023-07-13T09:06:42;99003.81;;;43.54;12.84
13765;BME280;6953;48.810;9.204;2023-07-13T09:09:25;98973.38;;;42.86;13.91
13765;BME280;6953;48.810;9.204;2023-07-13T09:12:16;98966.50;;;42.23;14.15
13765;BME280;6953;48.810;9.204;2023-07-13T09:14:49;98867.13;;;42.43;13.01
13765;BME280;6953;48.810;9.204;2023-07-13T09:17:22;99008.72;;;44.48;12.68
13765;BME280;6953;48.810;9.204;2023-07-13T09:19:57;98817.91;;;43.62;12.04
13765;BME280;6953;48.810;9.204;2023-07-13T09:22:25;98994.03;;;43.03;13.02
13765;BME280;6953;48.810;9.204;2023-07-13T09:24:58;99009.50;;;43.04;13.00
13765;BME280;6953;48.810;9.204;2023-07-13T09:27:45;98993.53;;;42.71;13.50
13765;BME280;6953;48.810;9.204;2023-07-13T09:30:23;98805.84;;;39.94;14.25
13765;BME280;6953;48.810;9.204;2023-07-13T09:32:52;98859.97;;;38.24;16.15
13765;BME280;6953;48.810;9.204;2023-07-13T09:35:23;98807.84;;;38.41;15.43
13765;BME280;6953;48.810;9.204;2023-07-13T09:37:50;98806.19;;;38.87;15.78
13765;BME280;6953;48.810;9.204;2023-07-13T09:40:44;98984.78;;;39.14;15.93
13765;BME280;6953;48.810;9.204;2023-07-13T09:43:14;98894.22;;;38.22;16.12
13765;BME280;6953;48.810;9.204;2023-07-13T09:45:40;98967.94;;;40.01;14.91
13765;BME280;6953;48.810;9.204;2023-07-13T09:48:12;98980.28;;;40.66;14.18
13765;BME280;6953;48.810;9.204;2023-07-13T09:50:39;98998.25;;;42.31;13.36
13765;BME280;6953;48.810;9.204;2023-07-13T09:53:11;98959.16;;;44.14;12.53
13765;BME280;6953;48.810;9.204;2023-07-13T09:55:38;98984.22;;;45.36;11.72
13765;BME280;6953;48.810;9.204;2023-07-13T10:00:35;98982.69;;;45.48;12.09
13765;BME280;6953;48.810;9.204;2023-07-13T10:03:18;98972.78;;;44.72;11.82
13765;BME280;6953;48.810;9.204;2023-07-13T10:05:47;98972.03;;;44.28;12.32
13765;BME280;6953;48.810;9.204;2023-07-13T10:11:00;98998.78;;;41.98;13.69
13765;BME280;6953;48.810;9.204;2023-07-13T10:15:53;98982.41;;;41.57;14.19
13765;BME280;6953;48.810;9.204;2023-07-13T10:18:19;98977.81;;;42.17;14.02
13765;BME280;6953;48.810;9.204;2023-07-13T10:20:46;98983.31;;;44.03;12.41
13765;BME280;6953;48.810;9.204;2023-07-13T10:23:15;98928.66;;;44.75;12.49
13765;BME280;6953;48.810;9.204;2023-07-13T10:25:47;98964.84;;;44.32;12.14
13765;BME280;6953;48.810;9.204;2023-07-13T10:28:27;98906.81;;;42.77;14.25
13765;BME280;6953;48.810;9.204;2023-07-13T10:30:55;98961.78;;;42.84;13.95
13765;BME280;6953;48.810;9.204;2023-07-13T10:33:21;98962.03;;;42.87;13.37
13765;BME280;6953;48.810;9.204;2023-07-13T10:35:48;98791.88;;;41.73;13.85
13765;BME280;6953;48.810;9.204;2023-07-13T10:38:20;98958.16;;;42.83;13.62
13765;BME280;6953;48.810;9.204;2023-07-13T10:41:14;98945.69;;;43.01;13.14
13765;BME280;6953;48.810;9.204;2023-07-13T10:43:49;98978.59;;;42.97;13.22
13765;BME280;6953;48.810;9.204;2023-07-13T10:46:17;98849.97;;;41.17;13.25
13765;BME280;6953;48.810;9.204;2023-07-13T10:48:47;98972.41;;;41.36;14.04
13765;BME280;6953;48.810;9.204;2023-07-13T10:51:16;98948.84;;;41.03;14.85
13765;BME280;6953;48.810;9.204;2023-07-13T10:53:42;98956.28;;;41.08;15.45
13765;BME280;6953;48.810;9.204;2023-07-13T10:56:29;98946.00;;;40.84;14.48
13765;BME280;6953;48.810;9.204;2023-07-13T10:59:16;98952.63;;;40.92;14.55
13765;BME280;6953;48.810;9.204;2023-07-13T11:04:18;98964.00;;;41.97;14.21
13765;BME280;6953;48.810;9.204;2023-07-13T11:06:47;98952.00;;;43.69;12.99
13765;BME280;6953;48.810;9.204;2023-07-13T11:11:43;98764.38;;;40.62;14.40
13765;BME280;6953;48.810;9.204;2023-07-13T11:14:30;98939.66;;;40.42;15.74
13765;BME280;6953;48.810;9.204;2023-07-13T11:16:56;98733.91;;;37.91;16.79
13765;BME280;6953;48.810;9.204;2023-07-13T11:24:51;98906.94;;;38.11;16.90
13765;BME280;6953;48.810;9.204;2023-07-13T11:30:07;98824.44;;;40.70;14.84
13765;BME280;6953;48.810;9.204;2023-07-13T11:32:34;98887.06;;;43.04;12.98
13765;BME280;6953;48.810;9.204;2023-07-13T11:35:00;98941.88;;;44.55;12.25
13765;BME280;6953;48.810;9.204;2023-07-13T11:37:25;98888.28;;;44.69;11.81
13765;BME280;6953;48.810;9.204;2023-07-13T11:39:51;98941.06;;;43.93;12.51
13765;BME280;6953;48.810;9.204;2023-07-13T11:42:18;98926.03;;;41.18;14.86
13765;BME280;6953;48.810;9.204;2023-07-13T11:44:48;98917.44;;;39.11;16.59
13765;BME280;6953;48.810;9.204;2023-07-13T11:47:19;98857.66;;;36.44;18.07
13765;BME280;6953;48.810;9.204;2023-07-13T11:49:51;98896.28;;;35.49;19.35
13765;BME280;6953;48.810;9.204;2023-07-13T11:52:21;98764.53;;;37.06;16.96
13765;BME280;6953;48.810;9.204;2023-07-13T11:54:54;98767.16;;;40.62;14.26
13765;BME280;6953;48.810;9.204;2023-07-13T11:57:30;98938.38;;;44.44;12.76
13765;BME280;6953;48.810;9.204;2023-07-13T12:00:00;98950.22;;;44.83;11.93
13765;BME280;6953;48.810;9.204;2023-07-13T12:02:37;98797.09;;;41.95;13.40
13765;BME280;6953;48.810;9.204;2023-07-13T12:05:04;98930.91;;;40.13;15.04
13765;BME280;6953;48.810;9.204;2023-07-13T12:07:32;98884.41;;;40.53;14.93
13765;BME280;6953;48.810;9.204;2023-07-13T12:10:02;98917.44;;;41.14;15.36
13765;BME280;6953;48.810;9.204;2023-07-13T12:12:29;98914.38;;;40.13;15.82
13765;BME280;6953;48.810;9.204;2023-07-13T12:14:55;98909.09;;;42.45;13.98
13765;BME280;6953;48.810;9.204;2023-07-13T12:17:22;98924.75;;;45.00;11.90
13765;BME280;6953;48.810;9.204;2023-07-13T12:19:49;98934.84;;;43.72;13.27
13765;BME280;6953;48.810;9.204;2023-07-13T12:22:17;98930.34;;;44.15;12.53
13765;BME280;6953;48.810;9.204;2023-07-13T12:24:43;98942.88;;;43.16;13.07
13765;BME280;6953;48.810;9.204;2023-07-13T12:27:26;98844.91;;;39.65;14.65
13765;BME280;6953;48.810;9.204;2023-07-13T12:29:58;98912.38;;;40.04;14.57
13765;BME280;6953;48.810;9.204;2023-07-13T12:32:24;98917.03;;;41.57;13.91
13765;BME280;6953;48.810;9.204;2023-07-13T12:34:56;98761.41;;;42.91;12.20
13765;BME280;6953;48.810;9.204;2023-07-13T12:37:23;98918.28;;;44.34;11.82
13765;BME280;6953;48.810;9.204;2023-07-13T12:39:49;98926.84;;;44.04;11.73
13765;BME280;6953;48.810;9.204;2023-07-13T12:42:26;98776.31;;;42.95;11.82
13765;BME280;6953;48.810;9.204;2023-07-13T12:45:00;98948.47;;;43.59;12.00
13765;BME280;6953;48.810;9.204;2023-07-13T12:47:27;98930.38;;;45.18;11.16
13765;BME280;6953;48.810;9.204;2023-07-13T12:49:55;98930.09;;;46.89;10.63
13765;BME280;6953;48.810;9.204;2023-07-13T12:52:33;98953.81;;;47.76;9.52
13765;BME280;6953;48.810;9.204;2023-07-13T12:55:12;98896.16;;;45.64;10.45
13765;BME280;6953;48.810;9.204;2023-07-13T12:57:53;98956.69;;;43.69;11.75
13765;BME280;6953;48.810;9.204;2023-07-13T13:00:28;98921.94;;;44.25;11.20
13765;BME280;6953;48.810;9.204;2023-07-13T13:02:56;98845.59;;;43.57;11.68
13765;BME280;6953;48.810;9.204;2023-07-13T13:05:25;98937.72;;;42.89;12.29
13765;BME280;6953;48.810;9.204;2023-07-13T13:07:51;98880.72;;;43.03;11.92
13765;BME280;6953;48.810;9.204;2023-07-13T13:10:17;98889.94;;;44.14;11.62
13765;BME280;6953;48.810;9.204;2023-07-13T13:12:42;98944.63;;;45.30;11.57
13765;BME280;6953;48.810;9.204;2023-07-13T13:15:09;98865.56;;;45.33;10.69
13765;BME280;6953;48.810;9.204;2023-07-13T13:17:35;98870.59;;;45.86;10.06
13765;BME280;6953;48.810;9.204;2023-07-13T13:20:00;98914.03;;;45.77;10.62
13765;BME280;6953;48.810;9.204;2023-07-13T13:22:25;98940.00;;;45.02;11.09
13765;BME280;6953;48.810;9.204;2023-07-13T13:24:51;98916.50;;;42.60;11.86
13765;BME280;6953;48.810;9.204;2023-07-13T13:27:18;98914.91;;;41.99;12.79
13765;BME280;6953;48.810;9.204;2023-07-13T13:29:45;98930.31;;;41.70;12.96
13765;BME280;6953;48.810;9.204;2023-07-13T13:32:14;98807.84;;;41.71;12.33
13765;BME280;6953;48.810;9.204;2023-07-13T13:34:41;98885.91;;;43.14;12.21
13765;BME280;6953;48.810;9.204;2023-07-13T13:37:19;98931.66;;;43.94;11.23
13765;BME280;6953;48.810;9.204;2023-07-13T13:39:45;98908.97;;;43.48;12.06
13765;BME280;6953;48.810;9.204;2023-07-13T13:42:10;98896.16;;;43.09;12.55